Chaplin, Connecticut
Current Conditions -  °F | °C
As of 12:52 AM on Monday 26 Jan 2015 (Local Time) from KIJD Reporting Station
Clear Clear  
Wind Chill: 19°   Ceiling: Unl
Heat Index: 19°   Visibility: 10mi
Dew Point:   Wind: 3mph
Humidity: 57%   Direction: 340°NNW
Pressure: 30.04"   Gusts: NA
Location:  41.79°N, 72.13°W
Report Text: KIJD 260552Z AUTO 34003KT 10SM CLR M07/M14 A3004 RMK AO2 SLP175 T10721144 11028 21089 51017 $
Loading
Personal Weather Stations






























Interactive Weather Map New forecast layout! Learn more

10-Day Weather Forecast

Advertisements
Track Severe Weather on mobile